Time;durP1;ratioP1;P1;durP2;ratioP2;P2;SDS_P1;SDS_P2;PMS_P1;PMS_P2;Temp;Humidity;BMP_temperature;BMP_pressure;BME280_temperature;BME280_humidity;BME280_pressure;Samples;Min_cycle;Max_cycle;Signal;HPM_P1;HPM_P2
2023/04/23 00:01:05;;;;;;;;;;;12.30;99.90;;;;;;5012684;28;19918;-62
2023/04/23 00:03:34;;;;;;;;;;;12.30;99.90;;;;;;5005513;28;19920;-60
2023/04/23 00:06:09;;;;;;;;;;;12.20;99.90;;;;;;5012143;28;19921;-61
2023/04/23 00:08:34;;;;;;;;;;;12.20;99.90;;;;;;5010115;28;20369;-61
2023/04/23 00:11:00;;;;;;;;;;;12.20;99.90;;;;;;5011484;28;19979;-61
2023/04/23 00:13:26;;;;;;;;;;;12.10;99.90;;;;;;5010088;28;19914;-60
2023/04/23 00:15:52;;;;;;;;;;;12.10;99.90;;;;;;5009703;28;19920;-61
2023/04/23 00:18:18;;;;;;;;;;;12.10;99.90;;;;;;5011793;28;19924;-61
2023/04/23 00:20:44;;;;;;;;;;;12.10;99.90;;;;;;5009249;28;19922;-60
2023/04/23 00:23:10;;;;;;;;;;;12.10;99.90;;;;;;5010838;28;19936;-60
2023/04/23 00:25:35;;;;;;;;;;;12.00;99.90;;;;;;4999244;28;19921;-61
2023/04/23 00:28:01;;;;;;;;;;;12.10;99.90;;;;;;5010763;28;20293;-62
2023/04/23 00:30:29;;;;;;;;;;;12.10;99.90;;;;;;5011342;28;20368;-61
2023/04/23 00:32:55;;;;;;;;;;;12.10;99.90;;;;;;5010078;28;19913;-62
2023/04/23 00:35:21;;;;;;;;;;;12.00;99.90;;;;;;5010929;28;19913;-61
2023/04/23 00:37:46;;;;;;;;;;;12.10;99.90;;;;;;5009474;28;19921;-62
2023/04/23 00:40:12;;;;;;;;;;;12.00;99.90;;;;;;5010744;28;19913;-61
2023/04/23 00:42:38;;;;;;;;;;;12.10;99.90;;;;;;5006462;28;19923;-60
2023/04/23 00:45:10;;;;;;;;;;;12.10;99.90;;;;;;5010626;28;19917;-60
2023/04/23 00:47:35;;;;;;;;;;;12.00;99.90;;;;;;5009152;28;19914;-60
2023/04/23 00:50:02;;;;;;;;;;;12.10;99.90;;;;;;5010363;28;19920;-60
2023/04/23 00:52:28;;;;;;;;;;;12.10;99.90;;;;;;5010118;28;20361;-60
2023/04/23 00:54:54;;;;;;;;;;;12.00;99.90;;;;;;5008761;28;19941;-60
2023/04/23 00:57:20;;;;;;;;;;;12.00;99.90;;;;;;5009608;28;20008;-60
2023/04/23 00:59:46;;;;;;;;;;;12.00;99.90;;;;;;5008529;28;19975;-60
2023/04/23 01:02:13;;;;;;;;;;;12.00;99.90;;;;;;5009338;28;19921;-59
2023/04/23 01:04:39;;;;;;;;;;;12.00;99.90;;;;;;5008721;28;19917;-60
2023/04/23 01:07:06;;;;;;;;;;;12.00;99.90;;;;;;5010665;28;19949;-59
2023/04/23 01:09:32;;;;;;;;;;;11.90;99.90;;;;;;5008435;28;19913;-60
2023/04/23 01:11:58;;;;;;;;;;;12.00;99.90;;;;;;5008971;28;20274;-60
2023/04/23 01:14:24;;;;;;;;;;;11.90;99.90;;;;;;5020915;28;20277;-60
2023/04/23 01:16:51;;;;;;;;;;;11.90;99.90;;;;;;5007916;28;19921;-60
2023/04/23 01:19:17;;;;;;;;;;;11.90;99.90;;;;;;5009873;28;20024;-60
2023/04/23 01:21:42;;;;;;;;;;;11.90;99.90;;;;;;5008558;28;20024;-61
2023/04/23 01:24:09;;;;;;;;;;;11.90;99.90;;;;;;5009792;28;19921;-61
2023/04/23 01:26:34;;;;;;;;;;;11.80;99.90;;;;;;5008162;28;20368;-60
2023/04/23 01:29:00;;;;;;;;;;;11.80;99.90;;;;;;5009653;28;19959;-60
2023/04/23 01:31:26;;;;;;;;;;;11.80;99.90;;;;;;5009146;28;20305;-59
2023/04/23 01:33:52;;;;;;;;;;;11.80;99.90;;;;;;4994358;28;19913;-61
2023/04/23 01:36:18;;;;;;;;;;;11.90;99.90;;;;;;5009925;28;19925;-62
2023/04/23 01:38:44;;;;;;;;;;;11.80;99.90;;;;;;5008364;28;20015;-61
2023/04/23 01:41:10;;;;;;;;;;;11.80;99.90;;;;;;5006902;28;20320;-61
2023/04/23 01:43:36;;;;;;;;;;;11.80;99.90;;;;;;5007907;28;19920;-61
2023/04/23 01:46:01;;;;;;;;;;;11.90;99.90;;;;;;5009785;28;19920;-61
2023/04/23 01:48:27;;;;;;;;;;;11.90;99.90;;;;;;5010088;28;20041;-61
2023/04/23 01:50:53;;;;;;;;;;;11.90;99.90;;;;;;5005868;28;19922;-61
2023/04/23 01:53:18;;;;;;;;;;;11.90;99.90;;;;;;5008250;28;19914;-61
2023/04/23 01:55:45;;;;;;;;;;;11.90;99.90;;;;;;4998521;28;20320;-60
2023/04/23 01:58:11;;;;;;;;;;;11.90;99.90;;;;;;5003776;28;20344;-61
2023/04/23 02:00:36;;;;;;;;;;;11.90;99.90;;;;;;5007723;28;19920;-61
2023/04/23 02:03:02;;;;;;;;;;;11.90;99.90;;;;;;5008289;28;19949;-61
2023/04/23 02:05:28;;;;;;;;;;;11.80;99.90;;;;;;5008961;28;19917;-61
2023/04/23 02:07:54;;;;;;;;;;;11.80;99.90;;;;;;5008502;28;19967;-60
2023/04/23 02:10:20;;;;;;;;;;;11.80;99.90;;;;;;5009303;28;19917;-60
2023/04/23 02:12:46;;;;;;;;;;;11.80;99.90;;;;;;5005917;28;19928;-61
2023/04/23 02:15:12;;;;;;;;;;;11.80;99.90;;;;;;5009631;28;19925;-60
2023/04/23 02:17:40;;;;;;;;;;;11.80;99.90;;;;;;5007686;28;19917;-59
2023/04/23 02:20:08;;;;;;;;;;;11.80;99.90;;;;;;5009380;28;19921;-60
2023/04/23 02:22:35;;;;;;;;;;;11.80;99.90;;;;;;5007847;28;20384;-60
2023/04/23 02:25:01;;;;;;;;;;;11.80;99.90;;;;;;5008183;28;19996;-61
2023/04/23 02:27:27;;;;;;;;;;;11.80;99.90;;;;;;5009640;28;20016;-61
2023/04/23 02:29:53;;;;;;;;;;;11.80;99.90;;;;;;5008154;28;19913;-60
2023/04/23 02:32:18;;;;;;;;;;;11.80;99.90;;;;;;5011223;28;19921;-60
2023/04/23 02:34:45;;;;;;;;;;;11.80;99.90;;;;;;5007896;28;20345;-60
2023/04/23 02:37:10;;;;;;;;;;;11.80;99.90;;;;;;5010492;28;19914;-60
2023/04/23 02:39:37;;;;;;;;;;;11.80;99.90;;;;;;5008651;28;19920;-60
2023/04/23 02:42:04;;;;;;;;;;;11.80;99.90;;;;;;5010874;28;19972;-60
2023/04/23 02:44:29;;;;;;;;;;;11.80;99.90;;;;;;5008736;28;19983;-60
2023/04/23 02:46:55;;;;;;;;;;;11.80;99.90;;;;;;5008403;28;20377;-60
2023/04/23 02:49:21;;;;;;;;;;;11.80;99.90;;;;;;5010389;28;20274;-60
2023/04/23 02:51:46;;;;;;;;;;;11.80;99.90;;;;;;5009652;28;19921;-60
2023/04/23 02:54:12;;;;;;;;;;;11.90;99.90;;;;;;5009516;28;20333;-60
2023/04/23 02:56:38;;;;;;;;;;;11.80;99.90;;;;;;5023693;28;20017;-60
2023/04/23 02:59:03;;;;;;;;;;;11.90;99.90;;;;;;5009099;28;19975;-61
2023/04/23 03:01:29;;;;;;;;;;;11.90;99.90;;;;;;5009640;28;20011;-60
2023/04/23 03:03:55;;;;;;;;;;;11.90;99.90;;;;;;5009893;28;20386;-60
2023/04/23 03:06:20;;;;;;;;;;;11.90;99.90;;;;;;5009778;28;20404;-60
2023/04/23 03:08:46;;;;;;;;;;;12.00;99.90;;;;;;5007059;28;20012;-60
2023/04/23 03:11:12;;;;;;;;;;;12.00;99.90;;;;;;5009803;28;19939;-60
2023/04/23 03:13:37;;;;;;;;;;;12.10;99.90;;;;;;5008263;28;19952;-61
2023/04/23 03:16:03;;;;;;;;;;;12.10;99.90;;;;;;5009453;28;19919;-60
2023/04/23 03:18:29;;;;;;;;;;;12.10;99.90;;;;;;5008353;28;20357;-59
2023/04/23 03:20:55;;;;;;;;;;;12.10;99.90;;;;;;5007073;28;19917;-60
2023/04/23 03:23:20;;;;;;;;;;;12.10;99.90;;;;;;5010589;28;19913;-60
2023/04/23 03:25:46;;;;;;;;;;;12.10;99.90;;;;;;5010348;28;20285;-60
2023/04/23 03:28:12;;;;;;;;;;;12.10;99.90;;;;;;5011758;28;19945;-60
2023/04/23 03:30:38;;;;;;;;;;;12.10;99.90;;;;;;5010613;28;19976;-60
2023/04/23 03:33:03;;;;;;;;;;;12.10;99.90;;;;;;5011602;28;19968;-61
2023/04/23 03:35:30;;;;;;;;;;;12.20;99.90;;;;;;5008454;28;20361;-60
2023/04/23 03:37:55;;;;;;;;;;;12.20;99.90;;;;;;5011158;28;19932;-61
2023/04/23 03:40:21;;;;;;;;;;;12.20;99.90;;;;;;5010804;28;19913;-60
2023/04/23 03:45:20;;;;;;;;;;;12.20;99.90;;;;;;5030483;28;19971;-63
2023/04/23 03:47:46;;;;;;;;;;;12.20;99.90;;;;;;5028638;28;20007;-63
2023/04/23 03:50:12;;;;;;;;;;;12.30;99.90;;;;;;5029353;28;20364;-63
2023/04/23 03:52:37;;;;;;;;;;;12.30;99.90;;;;;;5035541;28;19914;-63
2023/04/23 03:55:03;;;;;;;;;;;12.20;99.90;;;;;;5021091;28;19960;-63
2023/04/23 03:57:29;;;;;;;;;;;12.20;99.90;;;;;;5032902;28;19948;-63
2023/04/23 03:59:54;;;;;;;;;;;12.30;99.90;;;;;;5033577;28;20003;-64
2023/04/23 04:02:20;;;;;;;;;;;12.30;99.90;;;;;;5032175;28;19913;-63
2023/04/23 04:04:48;;;;;;;;;;;12.30;99.90;;;;;;5028465;28;19913;-63
2023/04/23 04:07:14;;;;;;;;;;;12.30;99.90;;;;;;5031743;28;19917;-63
2023/04/23 04:09:39;;;;;;;;;;;12.30;99.90;;;;;;5033472;28;20435;-63
2023/04/23 04:12:05;;;;;;;;;;;12.30;99.90;;;;;;5034662;28;19968;-61
2023/04/23 04:14:31;;;;;;;;;;;12.30;99.90;;;;;;5037461;28;19948;-63
2023/04/23 04:16:57;;;;;;;;;;;12.30;99.90;;;;;;5034548;28;19975;-63
2023/04/23 04:19:23;;;;;;;;;;;12.30;99.90;;;;;;5034483;28;19967;-63
2023/04/23 04:21:50;;;;;;;;;;;12.30;99.90;;;;;;5036007;28;19917;-63
2023/04/23 04:24:17;;;;;;;;;;;12.30;99.90;;;;;;5036319;28;20007;-63
2023/04/23 04:26:43;;;;;;;;;;;12.30;99.90;;;;;;5036882;28;19919;-62
2023/04/23 04:29:09;;;;;;;;;;;12.20;99.90;;;;;;5045761;28;20004;-63
2023/04/23 04:31:34;;;;;;;;;;;12.30;99.90;;;;;;5023044;28;19929;-63
2023/04/23 04:34:00;;;;;;;;;;;12.20;99.90;;;;;;5038608;28;19914;-63
2023/04/23 04:36:27;;;;;;;;;;;12.20;99.90;;;;;;5031415;28;19924;-63
2023/04/23 04:38:57;;;;;;;;;;;12.20;99.90;;;;;;5029471;28;19920;-63
2023/04/23 04:41:24;;;;;;;;;;;12.20;99.90;;;;;;5035791;28;19913;-62
2023/04/23 04:43:50;;;;;;;;;;;12.20;99.90;;;;;;5032950;28;19921;-62
2023/04/23 04:46:18;;;;;;;;;;;12.30;99.90;;;;;;5028121;28;20000;-63
2023/04/23 04:48:44;;;;;;;;;;;12.30;99.90;;;;;;5031779;28;19921;-63
2023/04/23 04:51:10;;;;;;;;;;;12.30;99.90;;;;;;5029669;28;19928;-63
2023/04/23 04:53:35;;;;;;;;;;;12.30;99.90;;;;;;5026288;28;19917;-63
2023/04/23 04:56:01;;;;;;;;;;;12.30;99.90;;;;;;5030276;28;20377;-63
2023/04/23 04:58:26;;;;;;;;;;;12.30;99.90;;;;;;5028662;28;19914;-63
2023/04/23 05:00:53;;;;;;;;;;;12.30;99.90;;;;;;5022551;28;19921;-63
2023/04/23 05:03:19;;;;;;;;;;;12.30;99.90;;;;;;5026778;28;19956;-63
2023/04/23 05:05:44;;;;;;;;;;;12.20;99.90;;;;;;5026156;28;20365;-64
2023/04/23 05:08:11;;;;;;;;;;;12.20;99.90;;;;;;5029225;28;19920;-63
2023/04/23 05:10:36;;;;;;;;;;;12.20;99.90;;;;;;5028851;28;19921;-63
2023/04/23 05:13:02;;;;;;;;;;;12.20;99.90;;;;;;5029876;28;19919;-63
2023/04/23 05:15:27;;;;;;;;;;;12.30;99.90;;;;;;5035162;28;19914;-64
2023/04/23 05:17:53;;;;;;;;;;;12.30;99.90;;;;;;5029620;28;19987;-62
2023/04/23 05:20:19;;;;;;;;;;;12.30;99.90;;;;;;5035216;28;19975;-63
2023/04/23 05:22:45;;;;;;;;;;;12.30;99.90;;;;;;5030715;28;19971;-64
2023/04/23 05:25:11;;;;;;;;;;;12.40;99.90;;;;;;5033998;28;19913;-63
2023/04/23 05:27:36;;;;;;;;;;;12.40;99.90;;;;;;5033013;28;20258;-63
2023/04/23 05:30:03;;;;;;;;;;;12.40;99.90;;;;;;5031398;28;20225;-63
2023/04/23 05:32:28;;;;;;;;;;;12.40;99.90;;;;;;5033406;28;20393;-63
2023/04/23 05:34:54;;;;;;;;;;;12.40;99.90;;;;;;5026372;28;20023;-63
2023/04/23 05:37:20;;;;;;;;;;;12.40;99.90;;;;;;5027568;28;19953;-63
2023/04/23 05:39:46;;;;;;;;;;;12.40;99.90;;;;;;5027843;28;19936;-63
2023/04/23 05:42:12;;;;;;;;;;;12.40;99.90;;;;;;5028810;28;19920;-63
2023/04/23 05:44:37;;;;;;;;;;;12.40;99.90;;;;;;5028307;28;20324;-62
2023/04/23 05:47:03;;;;;;;;;;;12.50;99.90;;;;;;5027205;28;19917;-64
2023/04/23 05:49:29;;;;;;;;;;;12.40;99.90;;;;;;5026167;28;19913;-63
2023/04/23 05:51:57;;;;;;;;;;;12.40;99.90;;;;;;5025926;28;20016;-63
2023/04/23 05:54:23;;;;;;;;;;;12.40;99.90;;;;;;5027428;28;19920;-63
2023/04/23 05:59:51;;;;;;;;;;;12.40;99.90;;;;;;5024145;28;20059;-64
2023/04/23 06:02:17;;;;;;;;;;;12.40;99.90;;;;;;5029931;28;20383;-63
2023/04/23 06:04:42;;;;;;;;;;;12.50;99.90;;;;;;5025280;28;19913;-63
2023/04/23 06:07:08;;;;;;;;;;;12.50;99.90;;;;;;5027070;28;19992;-63
2023/04/23 06:09:34;;;;;;;;;;;12.50;99.90;;;;;;5028579;28;19921;-64
2023/04/23 06:12:02;;;;;;;;;;;12.50;99.90;;;;;;5029431;28;19921;-63
2023/04/23 06:14:27;;;;;;;;;;;12.60;99.90;;;;;;5027282;28;19913;-64
2023/04/23 06:16:53;;;;;;;;;;;12.50;99.90;;;;;;5022659;28;19913;-63
2023/04/23 06:19:18;;;;;;;;;;;12.60;99.90;;;;;;5029737;28;20997;-64
2023/04/23 06:21:44;;;;;;;;;;;12.60;99.90;;;;;;5026696;28;19913;-63
2023/04/23 06:24:10;;;;;;;;;;;12.70;99.90;;;;;;5028330;28;19914;-63
2023/04/23 06:26:35;;;;;;;;;;;12.60;99.90;;;;;;5029996;28;19959;-63
2023/04/23 06:29:01;;;;;;;;;;;12.70;99.90;;;;;;5022748;28;20392;-62
2023/04/23 06:31:26;;;;;;;;;;;12.70;99.90;;;;;;5026658;28;19964;-62
2023/04/23 06:33:52;;;;;;;;;;;12.80;99.90;;;;;;5003196;28;19913;-63
2023/04/23 06:36:18;;;;;;;;;;;12.70;99.90;;;;;;5030658;28;19919;-63
2023/04/23 06:38:43;;;;;;;;;;;12.80;99.90;;;;;;5029603;28;19960;-64
2023/04/23 06:41:09;;;;;;;;;;;12.80;99.90;;;;;;5026718;28;19917;-64
2023/04/23 06:43:35;;;;;;;;;;;12.70;99.90;;;;;;5030893;28;19936;-62
2023/04/23 06:46:00;;;;;;;;;;;12.70;99.90;;;;;;5028021;28;19913;-64
2023/04/23 06:48:26;;;;;;;;;;;12.70;99.90;;;;;;5031103;28;19913;-63
2023/04/23 06:50:51;;;;;;;;;;;12.60;99.90;;;;;;5026582;28;20012;-65
2023/04/23 06:53:17;;;;;;;;;;;12.70;99.90;;;;;;5024909;28;20238;-64
2023/04/23 06:55:43;;;;;;;;;;;12.60;99.90;;;;;;5028522;28;19917;-64
2023/04/23 06:58:10;;;;;;;;;;;12.70;99.90;;;;;;5029554;28;20258;-64
2023/04/23 07:00:36;;;;;;;;;;;12.70;99.90;;;;;;5030237;28;19917;-64
2023/04/23 07:03:01;;;;;;;;;;;12.60;99.90;;;;;;5024370;28;19919;-62
2023/04/23 07:05:27;;;;;;;;;;;12.70;99.90;;;;;;5031956;28;19914;-64
2023/04/23 07:07:53;;;;;;;;;;;12.70;99.90;;;;;;5030408;28;20365;-62
2023/04/23 07:10:19;;;;;;;;;;;12.70;99.90;;;;;;5039176;28;19921;-64
2023/04/23 07:12:44;;;;;;;;;;;12.70;99.90;;;;;;5032956;28;19914;-63
2023/04/23 07:15:10;;;;;;;;;;;12.70;99.90;;;;;;5028125;28;19920;-62
2023/04/23 07:17:36;;;;;;;;;;;12.60;99.90;;;;;;5021830;28;20387;-62
2023/04/23 07:20:05;;;;;;;;;;;12.60;99.90;;;;;;5033703;28;19967;-63
2023/04/23 07:22:31;;;;;;;;;;;12.60;99.90;;;;;;5031172;28;19913;-63
2023/04/23 07:25:04;;;;;;;;;;;12.70;99.90;;;;;;5033165;28;20411;-63
2023/04/23 07:27:30;;;;;;;;;;;12.70;99.90;;;;;;5027103;28;19940;-65
2023/04/23 07:29:55;;;;;;;;;;;12.70;99.90;;;;;;5028742;28;20375;-64
2023/04/23 07:32:24;;;;;;;;;;;12.60;99.90;;;;;;5026383;28;19986;-64
2023/04/23 07:34:50;;;;;;;;;;;12.60;99.90;;;;;;5009018;28;19913;-62
2023/04/23 07:37:15;;;;;;;;;;;12.60;99.90;;;;;;5030995;28;20423;-64
2023/04/23 07:39:41;;;;;;;;;;;12.50;99.90;;;;;;5033588;28;19921;-64
2023/04/23 07:42:07;;;;;;;;;;;12.50;99.90;;;;;;5027052;28;20340;-63
2023/04/23 07:44:32;;;;;;;;;;;12.50;99.90;;;;;;5034379;28;19928;-64
2023/04/23 07:46:59;;;;;;;;;;;12.50;99.90;;;;;;5041052;28;19920;-64
2023/04/23 07:49:25;;;;;;;;;;;12.50;99.90;;;;;;5018676;28;19920;-63
2023/04/23 07:51:51;;;;;;;;;;;12.50;99.90;;;;;;5029033;28;20382;-63
2023/04/23 07:54:17;;;;;;;;;;;12.50;99.90;;;;;;5036654;28;19914;-63
2023/04/23 07:56:42;;;;;;;;;;;12.50;99.90;;;;;;5037673;28;19913;-63
2023/04/23 07:59:08;;;;;;;;;;;12.50;99.90;;;;;;5031201;28;19998;-64
2023/04/23 08:01:34;;;;;;;;;;;12.40;99.90;;;;;;5035100;28;20384;-64
2023/04/23 08:04:00;;;;;;;;;;;12.30;99.90;;;;;;5033906;28;19921;-63
2023/04/23 08:06:26;;;;;;;;;;;12.30;99.90;;;;;;5031828;28;19972;-63
2023/04/23 08:08:52;;;;;;;;;;;12.30;99.90;;;;;;5033288;28;19921;-64
2023/04/23 08:11:18;;;;;;;;;;;12.30;99.90;;;;;;5035492;28;19963;-64
2023/04/23 08:13:44;;;;;;;;;;;12.30;99.90;;;;;;5039683;28;19913;-63
2023/04/23 08:16:09;;;;;;;;;;;12.30;99.90;;;;;;5040621;28;19912;-66
2023/04/23 08:18:35;;;;;;;;;;;12.20;99.90;;;;;;5031710;28;19921;-65
2023/04/23 08:21:01;;;;;;;;;;;12.20;99.90;;;;;;5030560;28;19917;-65
2023/04/23 08:23:26;;;;;;;;;;;12.20;99.90;;;;;;5033275;28;19913;-65
2023/04/23 08:25:52;;;;;;;;;;;12.20;99.90;;;;;;5021050;28;19913;-65
2023/04/23 08:28:18;;;;;;;;;;;12.10;99.90;;;;;;5012961;28;19913;-67
2023/04/23 08:30:45;;;;;;;;;;;12.10;99.90;;;;;;5028496;28;19921;-68
2023/04/23 08:33:31;;;;;;;;;;;12.00;99.90;;;;;;5032888;28;19912;-66
2023/04/23 08:35:56;;;;;;;;;;;12.10;99.90;;;;;;5029014;28;19913;-65
2023/04/23 08:38:28;;;;;;;;;;;12.10;99.90;;;;;;5029852;28;20043;-64
2023/04/23 08:40:56;;;;;;;;;;;12.10;99.90;;;;;;5029466;28;19924;-64
2023/04/23 08:43:26;;;;;;;;;;;12.10;99.90;;;;;;5031455;28;19929;-64
2023/04/23 08:45:52;;;;;;;;;;;12.10;99.90;;;;;;5017177;28;20288;-64
2023/04/23 08:48:18;;;;;;;;;;;12.30;99.90;;;;;;5023805;28;20426;-65
2023/04/23 08:50:44;;;;;;;;;;;12.30;99.90;;;;;;5030264;28;19944;-64
2023/04/23 08:53:15;;;;;;;;;;;12.40;99.90;;;;;;5035830;28;19919;-64
2023/04/23 08:55:40;;;;;;;;;;;12.40;99.90;;;;;;5036731;28;19920;-64
2023/04/23 08:58:07;;;;;;;;;;;12.40;99.90;;;;;;5025987;28;19917;-64
2023/04/23 09:00:33;;;;;;;;;;;12.40;99.90;;;;;;5033082;28;19920;-65
2023/04/23 09:02:59;;;;;;;;;;;12.40;99.90;;;;;;5022905;28;20435;-66
2023/04/23 09:05:26;;;;;;;;;;;12.40;99.90;;;;;;5032188;28;19917;-64
2023/04/23 09:07:52;;;;;;;;;;;12.30;99.90;;;;;;5036405;28;20416;-64
2023/04/23 09:10:18;;;;;;;;;;;12.30;99.90;;;;;;5028954;28;19920;-64
2023/04/23 09:12:43;;;;;;;;;;;12.40;99.90;;;;;;5018183;28;19929;-64
2023/04/23 09:15:10;;;;;;;;;;;12.50;99.90;;;;;;5029456;28;19921;-65
2023/04/23 09:17:37;;;;;;;;;;;12.50;99.90;;;;;;5033082;28;19966;-66
2023/04/23 09:20:04;;;;;;;;;;;12.60;99.90;;;;;;5031209;28;19920;-64
2023/04/23 09:22:40;;;;;;;;;;;12.50;99.90;;;;;;5030232;28;19921;-64
2023/04/23 09:25:07;;;;;;;;;;;12.50;99.90;;;;;;5033217;28;19924;-64
2023/04/23 09:27:33;;;;;;;;;;;12.50;99.90;;;;;;5025160;28;19920;-64
2023/04/23 09:30:03;;;;;;;;;;;12.20;99.90;;;;;;5036515;28;19975;-64
2023/04/23 09:32:33;;;;;;;;;;;12.20;99.90;;;;;;5028123;28;19967;-65
2023/04/23 09:35:04;;;;;;;;;;;12.30;99.90;;;;;;5029727;28;19913;-65
2023/04/23 09:37:30;;;;;;;;;;;12.50;99.90;;;;;;5028126;28;20018;-65
2023/04/23 09:40:03;;;;;;;;;;;12.60;99.90;;;;;;5027575;28;19913;-65
2023/04/23 09:42:29;;;;;;;;;;;12.60;99.90;;;;;;5025124;28;19996;-65
2023/04/23 09:44:56;;;;;;;;;;;12.50;99.90;;;;;;5038231;28;19921;-65
2023/04/23 09:47:22;;;;;;;;;;;12.50;99.90;;;;;;5027374;28;19913;-65
2023/04/23 09:49:48;;;;;;;;;;;12.60;99.90;;;;;;5029874;28;19967;-64
2023/04/23 09:52:17;;;;;;;;;;;12.70;99.90;;;;;;5030695;28;20329;-65
2023/04/23 09:54:45;;;;;;;;;;;12.80;99.90;;;;;;5013016;28;19939;-66
2023/04/23 09:57:11;;;;;;;;;;;13.00;99.90;;;;;;5016792;28;19920;-65
2023/04/23 09:59:37;;;;;;;;;;;13.00;99.90;;;;;;5022652;28;20269;-65
2023/04/23 10:02:03;;;;;;;;;;;13.00;99.90;;;;;;5028332;28;19917;-70
2023/04/23 10:04:29;;;;;;;;;;;13.10;99.90;;;;;;5028141;28;19913;-65
2023/04/23 10:06:55;;;;;;;;;;;13.00;99.90;;;;;;5029048;28;19913;-65
2023/04/23 10:09:23;;;;;;;;;;;13.00;99.90;;;;;;5027202;28;19917;-65
2023/04/23 10:12:01;;;;;;;;;;;13.10;99.90;;;;;;5025415;28;19929;-64
2023/04/23 10:14:27;;;;;;;;;;;13.10;99.90;;;;;;5024742;28;20280;-65
2023/04/23 10:16:56;;;;;;;;;;;13.10;99.90;;;;;;5024919;28;19914;-65
2023/04/23 10:19:23;;;;;;;;;;;13.00;99.90;;;;;;5030232;28;19913;-65
2023/04/23 10:21:52;;;;;;;;;;;12.90;99.90;;;;;;5028110;28;19921;-66
2023/04/23 10:24:20;;;;;;;;;;;12.90;99.90;;;;;;5026877;28;19913;-65
2023/04/23 10:26:46;;;;;;;;;;;12.70;99.90;;;;;;5036927;28;20018;-65
2023/04/23 10:29:13;;;;;;;;;;;12.90;99.90;;;;;;5036249;28;20484;-66
2023/04/23 10:31:40;;;;;;;;;;;12.90;99.90;;;;;;5036927;28;20361;-64
2023/04/23 10:34:07;;;;;;;;;;;12.80;99.90;;;;;;5028754;28;19917;-63
2023/04/23 10:36:33;;;;;;;;;;;12.80;99.90;;;;;;5041740;28;19912;-64
2023/04/23 10:39:03;;;;;;;;;;;12.70;99.90;;;;;;5030986;28;19913;-64
2023/04/23 10:41:34;;;;;;;;;;;12.80;99.90;;;;;;5027857;28;20365;-64
2023/04/23 10:44:00;;;;;;;;;;;12.90;99.90;;;;;;5029485;28;19931;-65
2023/04/23 10:46:29;;;;;;;;;;;12.70;99.90;;;;;;5050717;28;20003;-64
2023/04/23 10:49:15;;;;;;;;;;;12.80;99.90;;;;;;5033752;28;19944;-63
2023/04/23 10:51:41;;;;;;;;;;;12.90;99.90;;;;;;5030739;28;20444;-64
2023/04/23 10:54:09;;;;;;;;;;;12.90;99.90;;;;;;5033934;28;20274;-63
2023/04/23 10:56:38;;;;;;;;;;;13.00;99.90;;;;;;5041698;28;20385;-63
2023/04/23 10:59:08;;;;;;;;;;;13.10;99.90;;;;;;5044713;28;19971;-64
2023/04/23 11:01:33;;;;;;;;;;;13.20;99.90;;;;;;5033797;28;19992;-63
2023/04/23 11:04:18;;;;;;;;;;;13.20;99.90;;;;;;5035625;28;20292;-64
2023/04/23 11:06:46;;;;;;;;;;;13.10;99.90;;;;;;5036980;28;19949;-63
2023/04/23 11:09:27;;;;;;;;;;;13.00;99.90;;;;;;5027474;28;19964;-63
2023/04/23 11:11:53;;;;;;;;;;;13.10;99.90;;;;;;5022416;28;19929;-63
2023/04/23 11:14:19;;;;;;;;;;;13.10;99.90;;;;;;5032689;28;19913;-63
2023/04/23 11:16:47;;;;;;;;;;;13.20;99.90;;;;;;5028099;28;20270;-63
2023/04/23 11:19:14;;;;;;;;;;;13.30;99.90;;;;;;5028639;28;20356;-63
2023/04/23 11:21:58;;;;;;;;;;;13.30;99.90;;;;;;5029567;28;19983;-64
2023/04/23 11:24:36;;;;;;;;;;;13.40;99.90;;;;;;5031544;28;19913;-64
2023/04/23 11:27:05;;;;;;;;;;;13.20;99.90;;;;;;5027364;28;20004;-62
2023/04/23 11:29:32;;;;;;;;;;;13.20;99.90;;;;;;5031759;28;19924;-64
2023/04/23 11:31:57;;;;;;;;;;;13.40;99.90;;;;;;5031802;28;19929;-63
2023/04/23 11:34:24;;;;;;;;;;;13.40;99.90;;;;;;5032973;28;19931;-63
2023/04/23 11:36:51;;;;;;;;;;;13.60;99.90;;;;;;5026861;28;20443;-64
2023/04/23 11:39:18;;;;;;;;;;;13.60;99.90;;;;;;5029599;28;19917;-63
2023/04/23 11:41:49;;;;;;;;;;;13.30;99.90;;;;;;5028356;28;19917;-64
2023/04/23 11:44:15;;;;;;;;;;;13.10;99.90;;;;;;5011148;28;20323;-63
2023/04/23 11:46:40;;;;;;;;;;;12.90;99.90;;;;;;5029356;28;19920;-63
2023/04/23 11:49:08;;;;;;;;;;;13.20;99.90;;;;;;5027430;28;20373;-64
2023/04/23 11:51:35;;;;;;;;;;;13.20;99.90;;;;;;5024818;28;19928;-62
2023/04/23 11:54:04;;;;;;;;;;;13.50;99.90;;;;;;5027434;28;19975;-64
2023/04/23 11:56:30;;;;;;;;;;;13.80;99.90;;;;;;5010978;28;19914;-64
2023/04/23 11:59:04;;;;;;;;;;;13.80;99.90;;;;;;5028274;28;20004;-64
2023/04/23 12:01:43;;;;;;;;;;;13.70;99.90;;;;;;5029619;28;19925;-63
2023/04/23 12:04:13;;;;;;;;;;;13.70;99.90;;;;;;5027518;28;19929;-64
2023/04/23 12:06:40;;;;;;;;;;;13.60;99.90;;;;;;5024409;28;19920;-62
2023/04/23 12:09:10;;;;;;;;;;;13.80;99.90;;;;;;5031820;28;19920;-62
2023/04/23 12:11:36;;;;;;;;;;;13.90;99.90;;;;;;5024443;28;19928;-64
2023/04/23 12:14:02;;;;;;;;;;;13.90;99.90;;;;;;5027757;28;20386;-63
2023/04/23 12:16:44;;;;;;;;;;;14.20;99.90;;;;;;5027481;28;19921;-64
2023/04/23 12:19:14;;;;;;;;;;;14.20;99.90;;;;;;5029310;28;19921;-64
2023/04/23 12:21:53;;;;;;;;;;;14.50;99.90;;;;;;5026265;28;19913;-64
2023/04/23 12:24:20;;;;;;;;;;;14.60;99.90;;;;;;5029696;28;19921;-63
2023/04/23 12:26:48;;;;;;;;;;;14.90;99.90;;;;;;5024608;28;19928;-64
2023/04/23 12:29:16;;;;;;;;;;;15.10;99.90;;;;;;5025512;28;19953;-64
2023/04/23 12:31:43;;;;;;;;;;;15.30;99.90;;;;;;5029888;28;20408;-65
2023/04/23 12:34:09;;;;;;;;;;;15.60;99.90;;;;;;5032609;28;19921;-63
2023/04/23 12:36:35;;;;;;;;;;;15.70;99.90;;;;;;5030958;28;19917;-62
2023/04/23 12:39:20;;;;;;;;;;;15.40;99.90;;;;;;5032902;28;19917;-64
2023/04/23 12:41:46;;;;;;;;;;;15.00;99.90;;;;;;5020783;28;19917;-64
2023/04/23 12:44:11;;;;;;;;;;;14.90;99.90;;;;;;5029556;28;20391;-64
2023/04/23 12:46:37;;;;;;;;;;;14.50;99.90;;;;;;5027719;28;19920;-63
2023/04/23 12:49:03;;;;;;;;;;;14.30;99.90;;;;;;5023523;28;19920;-63
2023/04/23 12:51:28;;;;;;;;;;;14.20;99.90;;;;;;5030767;28;19921;-64
2023/04/23 12:53:54;;;;;;;;;;;14.10;99.90;;;;;;5025803;28;19914;-65
2023/04/23 12:56:19;;;;;;;;;;;14.10;99.90;;;;;;5030987;28;19966;-63
2023/04/23 12:58:45;;;;;;;;;;;13.90;99.90;;;;;;5026840;28;19913;-63
2023/04/23 13:01:13;;;;;;;;;;;14.20;99.90;;;;;;5036279;28;19913;-63
2023/04/23 13:03:39;;;;;;;;;;;14.30;99.90;;;;;;5022737;28;19917;-63
2023/04/23 13:06:06;;;;;;;;;;;14.60;99.90;;;;;;5034079;28;19917;-62
2023/04/23 13:08:32;;;;;;;;;;;14.80;99.90;;;;;;5012867;28;20011;-62
2023/04/23 13:10:59;;;;;;;;;;;15.20;99.90;;;;;;5021470;28;20012;-63
2023/04/23 13:13:26;;;;;;;;;;;15.50;99.90;;;;;;5025751;28;19921;-62
2023/04/23 13:15:52;;;;;;;;;;;15.70;99.90;;;;;;5027261;28;19967;-63
2023/04/23 13:18:17;;;;;;;;;;;15.70;99.90;;;;;;5030887;28;19940;-63
2023/04/23 13:20:43;;;;;;;;;;;15.60;99.90;;;;;;5029931;28;20376;-65
2023/04/23 13:23:10;;;;;;;;;;;15.40;99.90;;;;;;5026396;28;19967;-63
2023/04/23 13:25:35;;;;;;;;;;;15.40;99.90;;;;;;5023341;28;19919;-63
2023/04/23 13:28:01;;;;;;;;;;;15.00;99.90;;;;;;5024405;28;20015;-63
2023/04/23 13:30:26;;;;;;;;;;;14.70;99.90;;;;;;5029612;28;20000;-63
2023/04/23 13:32:54;;;;;;;;;;;14.60;99.90;;;;;;5024707;28;20302;-64
2023/04/23 13:35:19;;;;;;;;;;;14.30;99.90;;;;;;5026109;28;19919;-62
2023/04/23 13:37:45;;;;;;;;;;;14.20;99.90;;;;;;5025425;28;20000;-63
2023/04/23 13:40:11;;;;;;;;;;;13.90;99.90;;;;;;5027493;28;19913;-63
2023/04/23 13:42:37;;;;;;;;;;;13.50;99.90;;;;;;5025042;28;19954;-62
2023/04/23 13:45:04;;;;;;;;;;;13.50;99.90;;;;;;5029744;28;19921;-63
2023/04/23 13:47:32;;;;;;;;;;;13.70;99.90;;;;;;5030349;28;19958;-62
2023/04/23 13:50:04;;;;;;;;;;;13.80;99.90;;;;;;5028974;28;20280;-63
2023/04/23 13:52:33;;;;;;;;;;;14.10;99.90;;;;;;5025226;28;19982;-63
2023/04/23 13:55:02;;;;;;;;;;;14.40;99.90;;;;;;5010053;28;19944;-62
2023/04/23 13:57:29;;;;;;;;;;;14.60;99.90;;;;;;5003977;28;19920;-62
2023/04/23 13:59:54;;;;;;;;;;;14.90;99.90;;;;;;5007955;28;21346;-64
2023/04/23 14:02:23;;;;;;;;;;;15.50;99.90;;;;;;5012341;28;19929;-64
2023/04/23 14:04:48;;;;;;;;;;;15.90;99.90;;;;;;5012570;28;19972;-64
2023/04/23 14:07:14;;;;;;;;;;;16.40;99.90;;;;;;5011443;28;20059;-65
2023/04/23 14:09:40;;;;;;;;;;;16.50;99.90;;;;;;5011637;28;19921;-64
2023/04/23 14:12:09;;;;;;;;;;;16.10;99.90;;;;;;5013136;28;19928;-65
2023/04/23 14:14:36;;;;;;;;;;;16.00;99.90;;;;;;5009952;28;20006;-64
2023/04/23 14:17:02;;;;;;;;;;;15.80;99.90;;;;;;4992566;28;20266;-64
2023/04/23 14:19:29;;;;;;;;;;;16.20;99.90;;;;;;5014299;28;19967;-65